Portada
METAR-TAF:

METAR-TAF

Aeroports :

Le Touquet, França

latitud: 50-30-53N, longitud: 001-37-39E, altitud: 6 m

Observació

L'informe es va fer fa 25 minuts, a les 18:00 UTC
Vent 12 kt del Nord/Nord-Est
Temperatura 22°C
Humitat 50%
Pressió 1019 hPa
Visibilitat: 9000 m

METAR: LFAT 011800Z AUTO 03012KT 9000 NSC 22/11 Q1019

Hora: 20:25 (18:25 UTC)


TAF: manca

Observacions i pronòstics meteorològics de més de 4000 aeroports (METAR i TAF).

Les estacions disponibles són els punts grocs i vermells al mapa.

Posi el ratolí al punt desitjat per veure el nom de l'estació.

Feu clic per veure les observacions i els pronòstics meteorològics.

Per canviar el mapa: feu clic els botons verds amb una creu de color negre per apropar; al botó verd amb un guió per allunyar la imatge; o en les fletxes verdes per a mapes adjacents.


METAR-TAF: